createdAt,value
2023-02-05T00:01:41.646Z,95.20
2023-02-05T00:04:27.126Z,95.30
2023-02-05T00:07:12.928Z,95.30
2023-02-05T00:09:58.075Z,95.30
2023-02-05T00:12:44.183Z,95.30
2023-02-05T00:15:29.641Z,95.30
2023-02-05T00:18:15.373Z,95.20
2023-02-05T00:21:01.113Z,95.20
2023-02-05T00:23:46.781Z,95.20
2023-02-05T00:26:32.448Z,95.70
2023-02-05T00:29:17.841Z,95.40
2023-02-05T00:32:03.486Z,95.50
2023-02-05T00:34:51.776Z,95.40
2023-02-05T00:37:39.851Z,95.40
2023-02-05T00:40:25.141Z,95.40
2023-02-05T00:43:10.490Z,95.50
2023-02-05T00:45:56.211Z,95.50
2023-02-05T00:48:42.692Z,95.60
2023-02-05T00:51:28.543Z,95.80
2023-02-05T00:54:14.329Z,95.60
2023-02-05T00:57:00.026Z,95.50
2023-02-05T00:59:45.569Z,95.60
2023-02-05T01:02:30.921Z,95.60
2023-02-05T01:05:17.030Z,95.60
2023-02-05T01:08:05.419Z,95.50
2023-02-05T01:10:52.240Z,95.50
2023-02-05T01:13:40.782Z,95.60
2023-02-05T01:16:26.500Z,95.50
2023-02-05T01:19:12.021Z,95.40
2023-02-05T01:21:57.750Z,95.20
2023-02-05T01:24:43.390Z,95.00
2023-02-05T01:27:29.199Z,95.00
2023-02-05T01:30:15.189Z,95.10
2023-02-05T01:33:01.134Z,94.90
2023-02-05T01:35:47.070Z,94.40
2023-02-05T01:38:32.495Z,94.70
2023-02-05T01:41:18.108Z,94.30
2023-02-05T01:44:12.931Z,94.40
2023-02-05T01:46:58.685Z,94.60
2023-02-05T01:49:44.305Z,94.40
2023-02-05T01:52:29.795Z,93.90
2023-02-05T01:55:15.982Z,93.90
2023-02-05T01:58:02.242Z,93.90
2023-02-05T02:00:48.937Z,93.80
2023-02-05T02:03:34.158Z,93.50
2023-02-05T02:06:20.410Z,93.50
2023-02-05T02:09:13.397Z,93.50
2023-02-05T02:11:59.262Z,93.30
2023-02-05T02:14:48.896Z,93.40
2023-02-05T02:17:46.944Z,93.30
2023-02-05T02:20:37.202Z,93.20
2023-02-05T02:23:40.187Z,93.10
2023-02-05T02:26:28.425Z,93.00
2023-02-05T02:29:25.038Z,92.90
2023-02-05T02:32:29.883Z,92.80
2023-02-05T02:35:38.737Z,92.70
2023-02-05T02:38:40.510Z,92.90
2023-02-05T02:41:32.893Z,92.90
2023-02-05T02:44:35.620Z,93.00
2023-02-05T02:47:23.799Z,93.00
2023-02-05T02:50:25.034Z,93.00
2023-02-05T02:53:28.728Z,93.00
2023-02-05T02:56:19.399Z,93.00
2023-02-05T02:59:18.228Z,93.00
2023-02-05T03:02:10.152Z,93.00
2023-02-05T03:05:01.608Z,92.90
2023-02-05T03:08:26.865Z,92.90
2023-02-05T03:11:14.270Z,92.90
2023-02-05T03:14:02.780Z,92.90
2023-02-05T03:16:53.693Z,92.90
2023-02-05T03:19:39.408Z,92.90
2023-02-05T03:22:24.654Z,93.00
2023-02-05T03:25:10.508Z,93.00
2023-02-05T03:27:58.276Z,93.00
2023-02-05T03:31:09.358Z,93.10
2023-02-05T03:34:04.833Z,93.00
2023-02-05T03:37:14.777Z,93.10
2023-02-05T03:40:38.308Z,93.10
2023-02-05T03:43:49.776Z,93.20
2023-02-05T03:46:52.599Z,93.10
2023-02-05T03:50:08.913Z,93.20
2023-02-05T03:53:29.841Z,93.30
2023-02-05T03:56:32.280Z,93.30
2023-02-05T03:59:18.810Z,93.30
2023-02-05T04:02:05.405Z,93.50
2023-02-05T04:04:56.244Z,93.60
2023-02-05T04:07:48.296Z,93.70
2023-02-05T04:10:33.617Z,93.70
2023-02-05T04:13:20.806Z,93.70
2023-02-05T04:16:08.874Z,93.70
2023-02-05T04:18:54.196Z,93.80
2023-02-05T04:21:40.245Z,93.90
2023-02-05T04:24:29.589Z,94.10
2023-02-05T04:27:14.972Z,94.00
2023-02-05T04:30:03.604Z,94.40
2023-02-05T04:32:52.161Z,94.60
2023-02-05T04:35:42.042Z,94.80
2023-02-05T04:38:28.074Z,94.80
2023-02-05T04:41:13.639Z,94.90
2023-02-05T04:43:59.314Z,95.00
2023-02-05T04:46:45.429Z,94.90
2023-02-05T04:49:33.434Z,95.00
2023-02-05T04:52:18.810Z,95.00
2023-02-05T04:55:04.397Z,95.00
2023-02-05T04:57:52.361Z,95.10
2023-02-05T05:00:37.872Z,95.10
2023-02-05T05:03:23.527Z,95.20
2023-02-05T05:06:10.136Z,95.20
2023-02-05T05:08:55.588Z,95.40
2023-02-05T05:11:41.337Z,95.70
2023-02-05T05:14:27.617Z,95.30
2023-02-05T05:17:16.729Z,95.40
2023-02-05T05:20:03.583Z,95.10
2023-02-05T05:22:49.276Z,95.10
2023-02-05T05:25:35.193Z,95.10
2023-02-05T05:28:20.706Z,95.00
2023-02-05T05:31:11.768Z,95.00
2023-02-05T05:33:57.444Z,94.60
2023-02-05T05:36:43.801Z,94.50
2023-02-05T05:39:48.021Z,94.40
2023-02-05T05:42:54.328Z,93.90
2023-02-05T05:45:39.470Z,94.20
2023-02-05T05:48:25.557Z,94.20
2023-02-05T05:51:11.171Z,94.10
2023-02-05T05:53:57.110Z,93.90
2023-02-05T05:56:42.551Z,93.80
2023-02-05T05:59:28.152Z,94.00
2023-02-05T06:02:13.750Z,93.40
2023-02-05T06:04:59.665Z,93.20
2023-02-05T06:07:45.117Z,93.20
2023-02-05T06:10:33.011Z,93.00
2023-02-05T06:13:18.573Z,93.10
2023-02-05T06:16:04.702Z,92.90
2023-02-05T06:18:49.786Z,92.90
2023-02-05T06:21:35.266Z,92.90
2023-02-05T06:24:22.044Z,93.20
2023-02-05T06:27:10.210Z,92.80
2023-02-05T06:29:55.810Z,92.70
2023-02-05T06:32:41.456Z,92.80
2023-02-05T06:35:31.243Z,92.60
2023-02-05T06:38:16.715Z,92.50
2023-02-05T06:41:02.146Z,92.50
2023-02-05T06:43:47.672Z,92.20
2023-02-05T06:46:33.427Z,91.90
2023-02-05T06:49:18.742Z,91.90
2023-02-05T06:52:05.044Z,91.60
2023-02-05T06:54:50.405Z,91.80
2023-02-05T06:57:41.894Z,91.60
2023-02-05T07:00:27.663Z,91.30
2023-02-05T07:03:12.892Z,91.30
2023-02-05T07:06:05.648Z,91.30
2023-02-05T07:08:51.828Z,91.10
2023-02-05T07:11:37.113Z,90.90
2023-02-05T07:14:22.450Z,90.90
2023-02-05T07:17:11.193Z,90.80
2023-02-05T07:19:56.413Z,90.90
2023-02-05T07:22:41.966Z,90.90
2023-02-05T07:25:27.373Z,90.90
2023-02-05T07:28:12.897Z,91.00
2023-02-05T07:31:05.209Z,91.00
2023-02-05T07:33:50.841Z,90.80
2023-02-05T07:36:36.587Z,90.90
2023-02-05T07:39:21.734Z,91.20
2023-02-05T07:42:13.066Z,91.30
2023-02-05T07:45:07.853Z,91.10
2023-02-05T07:47:53.894Z,91.10
2023-02-05T07:50:45.293Z,91.00
2023-02-05T07:53:30.990Z,91.00
2023-02-05T07:56:17.706Z,91.00
2023-02-05T07:59:03.352Z,91.00
2023-02-05T08:01:48.979Z,91.30
2023-02-05T08:04:34.393Z,91.00
2023-02-05T08:07:19.915Z,91.00
2023-02-05T08:10:05.791Z,91.10
2023-02-05T08:12:51.145Z,91.10
2023-02-05T08:15:39.148Z,91.10
2023-02-05T08:18:25.522Z,90.80
2023-02-05T08:21:10.875Z,90.60
2023-02-05T08:23:58.572Z,90.40
2023-02-05T08:26:44.837Z,90.50
2023-02-05T08:29:30.227Z,90.30
2023-02-05T08:32:24.064Z,90.40
2023-02-05T08:35:09.703Z,90.20
2023-02-05T08:37:55.197Z,90.10
2023-02-05T08:40:41.650Z,90.10
2023-02-05T08:43:27.336Z,89.70
2023-02-05T08:46:14.732Z,89.70
2023-02-05T08:49:03.388Z,89.70
2023-02-05T08:51:48.819Z,88.60
2023-02-05T08:54:34.414Z,87.70
2023-02-05T08:57:20.040Z,87.10
2023-02-05T09:00:07.894Z,86.90
2023-02-05T09:02:53.633Z,86.40
2023-02-05T09:05:39.767Z,85.80
2023-02-05T09:08:27.111Z,85.60
2023-02-05T09:11:15.641Z,85.00
2023-02-05T09:14:01.009Z,84.80
2023-02-05T09:16:46.663Z,84.50
2023-02-05T09:19:39.460Z,84.80
2023-02-05T09:22:26.860Z,84.60
2023-02-05T09:25:12.195Z,84.10
2023-02-05T09:27:57.692Z,84.20
2023-02-05T09:30:45.328Z,83.30
2023-02-05T09:33:30.928Z,83.60
2023-02-05T09:36:21.334Z,82.80
2023-02-05T09:39:17.453Z,83.20
2023-02-05T09:42:38.345Z,83.70
2023-02-05T09:45:38.325Z,83.60
2023-02-05T09:48:57.159Z,83.40
2023-02-05T09:51:52.895Z,83.60
2023-02-05T09:54:44.489Z,82.90
2023-02-05T09:57:40.143Z,83.30
2023-02-05T10:00:45.340Z,81.90
2023-02-05T10:03:47.010Z,81.60
2023-02-05T10:07:03.564Z,80.10
2023-02-05T10:10:22.479Z,80.50
2023-02-05T10:13:24.186Z,79.80
2023-02-05T10:17:00.115Z,79.80
2023-02-05T10:20:10.146Z,78.90
2023-02-05T10:23:16.800Z,78.60
2023-02-05T10:26:12.409Z,78.10
2023-02-05T10:29:17.033Z,77.50
2023-02-05T10:32:26.113Z,77.20
2023-02-05T10:35:26.621Z,77.40
2023-02-05T10:38:26.165Z,77.20
2023-02-05T10:41:22.759Z,77.00
2023-02-05T10:44:19.556Z,77.20
2023-02-05T10:47:16.915Z,76.10
2023-02-05T10:50:29.161Z,77.00
2023-02-05T10:53:19.173Z,77.70
2023-02-05T10:56:08.952Z,78.00
2023-02-05T10:59:02.544Z,77.70
2023-02-05T11:01:48.745Z,78.20
2023-02-05T11:05:04.139Z,77.20
2023-02-05T11:07:51.773Z,77.30
2023-02-05T11:10:38.064Z,76.70
2023-02-05T11:13:28.082Z,76.50
2023-02-05T11:16:13.721Z,76.00
2023-02-05T11:19:01.233Z,76.30
2023-02-05T11:21:58.705Z,75.90
2023-02-05T11:24:45.781Z,75.40
2023-02-05T11:27:33.084Z,74.00
2023-02-05T11:30:53.968Z,73.60
2023-02-05T11:33:39.494Z,74.40
2023-02-05T11:36:25.675Z,72.00
2023-02-05T11:39:29.345Z,69.90
2023-02-05T11:42:21.352Z,67.60
2023-02-05T11:45:19.709Z,68.60
2023-02-05T11:48:34.036Z,68.50
2023-02-05T11:51:38.364Z,66.80
2023-02-05T11:54:31.731Z,67.70
2023-02-05T11:57:20.089Z,66.40
2023-02-05T12:00:12.914Z,62.00
2023-02-05T12:03:20.536Z,60.90
2023-02-05T12:06:18.281Z,60.30
2023-02-05T12:09:04.629Z,59.50
2023-02-05T12:12:04.135Z,60.30
2023-02-05T12:15:19.668Z,58.90
2023-02-05T12:18:40.778Z,58.20
2023-02-05T12:22:06.094Z,57.90
2023-02-05T12:25:26.900Z,57.60
2023-02-05T12:28:46.948Z,55.90
2023-02-05T12:31:57.038Z,54.90
2023-02-05T12:35:01.678Z,54.50
2023-02-05T12:37:52.481Z,53.80
2023-02-05T12:41:01.858Z,52.20
2023-02-05T12:43:49.767Z,53.90
2023-02-05T12:47:09.083Z,52.50
2023-02-05T12:50:10.648Z,50.30
2023-02-05T12:53:33.781Z,50.40
2023-02-05T12:56:37.694Z,50.70
2023-02-05T12:59:45.878Z,49.80
2023-02-05T13:03:03.280Z,50.20
2023-02-05T13:05:53.585Z,50.00
2023-02-05T13:08:48.110Z,45.70
2023-02-05T13:11:45.108Z,46.30
2023-02-05T13:14:39.408Z,48.30
2023-02-05T13:17:28.281Z,49.40
2023-02-05T13:20:45.065Z,50.80
2023-02-05T13:23:51.808Z,51.20
2023-02-05T13:27:04.215Z,51.20
2023-02-05T13:29:53.977Z,48.90
2023-02-05T13:32:40.515Z,46.50
2023-02-05T13:35:28.176Z,47.10
2023-02-05T13:38:41.847Z,47.40
2023-02-05T13:41:48.806Z,47.90
2023-02-05T13:44:54.953Z,47.70
2023-02-05T13:47:52.254Z,45.70
2023-02-05T13:50:49.401Z,46.00
2023-02-05T13:53:49.921Z,46.50
2023-02-05T13:56:58.193Z,48.30
2023-02-05T13:59:51.441Z,45.80
2023-02-05T14:02:43.975Z,43.40
2023-02-05T14:05:38.903Z,41.60
2023-02-05T14:08:35.049Z,41.70
2023-02-05T14:11:21.166Z,44.50
2023-02-05T14:14:27.043Z,46.50
2023-02-05T14:17:31.116Z,46.30
2023-02-05T14:20:25.846Z,45.30
2023-02-05T14:23:46.270Z,44.30
2023-02-05T14:26:51.876Z,42.80
2023-02-05T14:29:43.035Z,45.10
2023-02-05T14:32:28.626Z,45.10
2023-02-05T14:35:40.187Z,47.00
2023-02-05T14:38:34.077Z,49.00
2023-02-05T14:41:36.758Z,50.90
2023-02-05T14:44:27.087Z,51.80
2023-02-05T14:47:28.824Z,52.30
2023-02-05T14:50:40.599Z,51.60
2023-02-05T14:53:29.886Z,49.50
2023-02-05T14:56:39.472Z,50.70
2023-02-05T14:59:39.878Z,50.50
2023-02-05T15:02:46.822Z,51.20
2023-02-05T15:05:37.864Z,52.60
2023-02-05T15:08:35.047Z,52.40
2023-02-05T15:11:45.148Z,53.10
2023-02-05T15:14:50.197Z,52.50
2023-02-05T15:17:44.335Z,52.80
2023-02-05T15:20:33.901Z,51.90
2023-02-05T15:23:23.288Z,52.20
2023-02-05T15:26:39.157Z,53.90
2023-02-05T15:29:29.204Z,55.80
2023-02-05T15:32:36.086Z,56.70
2023-02-05T15:35:27.096Z,58.40
2023-02-05T15:38:33.937Z,59.00
2023-02-05T15:41:21.417Z,59.90
2023-02-05T15:44:37.644Z,61.30
2023-02-05T15:47:25.129Z,62.40
2023-02-05T15:50:14.909Z,63.30
2023-02-05T15:53:01.019Z,64.20
2023-02-05T15:55:51.565Z,65.10
2023-02-05T15:58:37.724Z,65.70
2023-02-05T16:01:30.507Z,66.70
2023-02-05T16:04:41.909Z,67.80
2023-02-05T16:07:32.698Z,68.50
2023-02-05T16:10:22.727Z,69.50
2023-02-05T16:13:16.743Z,70.40
2023-02-05T16:16:09.643Z,71.10
2023-02-05T16:18:59.096Z,71.90
2023-02-05T16:21:52.602Z,72.70
2023-02-05T16:24:42.629Z,73.80
2023-02-05T16:27:46.208Z,74.20
2023-02-05T16:30:40.931Z,75.00
2023-02-05T16:33:38.438Z,75.70
2023-02-05T16:36:31.057Z,76.00
2023-02-05T16:39:22.787Z,77.00
2023-02-05T16:42:44.613Z,77.80
2023-02-05T16:45:31.178Z,78.10
2023-02-05T16:48:25.424Z,78.90
2023-02-05T16:51:33.613Z,79.30
2023-02-05T16:54:18.677Z,80.20
2023-02-05T16:57:16.651Z,80.70
2023-02-05T17:00:18.501Z,80.90
2023-02-05T17:03:41.058Z,81.30
2023-02-05T17:06:34.459Z,81.50
2023-02-05T17:09:41.178Z,82.30
2023-02-05T17:12:40.000Z,83.10
2023-02-05T17:15:28.899Z,83.70
2023-02-05T17:18:32.087Z,83.90
2023-02-05T17:21:23.836Z,84.80
2023-02-05T17:24:09.597Z,84.90
2023-02-05T17:26:56.640Z,85.00
2023-02-05T17:29:42.266Z,85.90
2023-02-05T17:32:29.384Z,86.20
2023-02-05T17:35:16.326Z,86.20
2023-02-05T17:38:01.826Z,86.20
2023-02-05T17:40:47.767Z,86.40
2023-02-05T17:43:33.347Z,86.10
2023-02-05T17:46:19.131Z,86.10
2023-02-05T17:49:04.830Z,86.30
2023-02-05T17:51:50.176Z,86.40
2023-02-05T17:54:36.465Z,86.30
2023-02-05T17:57:23.310Z,86.30
2023-02-05T18:00:22.902Z,86.40
2023-02-05T18:03:08.319Z,86.50
2023-02-05T18:05:53.897Z,86.50
2023-02-05T18:08:42.296Z,86.20
2023-02-05T18:11:27.887Z,85.90
2023-02-05T18:14:13.083Z,86.00
2023-02-05T18:16:58.588Z,86.30
2023-02-05T18:19:44.253Z,86.60
2023-02-05T18:22:30.200Z,87.00
2023-02-05T18:25:16.047Z,87.10
2023-02-05T18:28:01.413Z,87.20
2023-02-05T18:30:54.809Z,86.80
2023-02-05T18:33:40.214Z,87.10
2023-02-05T18:39:29.465Z,87.60
2023-02-05T18:45:21.676Z,88.00
2023-02-05T18:48:10.512Z,88.00
2023-02-05T18:50:55.934Z,88.40
2023-02-05T18:53:43.184Z,88.60
2023-02-05T18:56:28.888Z,88.50
2023-02-05T18:59:17.929Z,88.70
2023-02-05T19:02:03.491Z,88.80
2023-02-05T19:04:55.571Z,89.00
2023-02-05T19:07:41.190Z,89.40
2023-02-05T19:10:26.598Z,89.50
2023-02-05T19:13:12.013Z,89.80
2023-02-05T19:16:04.454Z,90.30
2023-02-05T19:18:50.029Z,90.10
2023-02-05T19:21:46.539Z,90.00
2023-02-05T19:24:32.640Z,90.00
2023-02-05T19:27:18.926Z,90.00
2023-02-05T19:30:06.153Z,90.10
2023-02-05T19:32:52.139Z,90.40
2023-02-05T19:35:39.384Z,90.40
2023-02-05T19:38:25.047Z,90.40
2023-02-05T19:41:19.279Z,90.50
2023-02-05T19:44:07.373Z,90.80
2023-02-05T19:46:52.812Z,90.90
2023-02-05T19:49:40.098Z,90.90
2023-02-05T19:52:28.621Z,91.00
2023-02-05T19:55:14.430Z,91.10
2023-02-05T19:58:00.415Z,91.30
2023-02-05T20:00:48.126Z,91.30
2023-02-05T20:03:34.023Z,91.40
2023-02-05T20:06:21.517Z,91.40
2023-02-05T20:09:10.672Z,91.50
2023-02-05T20:11:56.247Z,91.50
2023-02-05T20:14:42.132Z,91.90
2023-02-05T20:17:28.277Z,91.70
2023-02-05T20:20:24.906Z,91.70
2023-02-05T20:23:18.093Z,91.80
2023-02-05T20:26:04.258Z,91.80
2023-02-05T20:29:11.770Z,91.90
2023-02-05T20:31:58.474Z,92.00
2023-02-05T20:34:44.785Z,92.10
2023-02-05T20:37:30.236Z,92.10
2023-02-05T20:40:22.693Z,92.20
2023-02-05T20:43:12.376Z,92.30
2023-02-05T20:46:03.933Z,92.30
2023-02-05T20:48:49.933Z,92.30
2023-02-05T20:51:36.235Z,92.30
2023-02-05T20:54:25.549Z,92.50
2023-02-05T20:57:11.098Z,92.70
2023-02-05T20:59:56.709Z,92.60
2023-02-05T21:02:42.181Z,92.60
2023-02-05T21:05:27.662Z,92.60
2023-02-05T21:08:13.298Z,92.60
2023-02-05T21:10:58.868Z,92.60
2023-02-05T21:13:45.668Z,92.60
2023-02-05T21:16:33.813Z,92.70
2023-02-05T21:19:19.584Z,92.80
2023-02-05T21:22:05.193Z,92.80
2023-02-05T21:24:50.593Z,92.90
2023-02-05T21:27:37.062Z,92.80
2023-02-05T21:30:22.160Z,92.80
2023-02-05T21:33:07.741Z,93.10
2023-02-05T21:35:53.160Z,93.20
2023-02-05T21:38:40.778Z,93.40
2023-02-05T21:41:27.072Z,93.50
2023-02-05T21:44:12.526Z,93.60
2023-02-05T21:46:57.841Z,93.60
2023-02-05T21:49:43.451Z,93.60
2023-02-05T21:52:29.287Z,93.60
2023-02-05T21:55:14.569Z,93.60
2023-02-05T21:58:00.009Z,93.70
2023-02-05T22:00:48.846Z,93.70
2023-02-05T22:03:34.293Z,93.70
2023-02-05T22:06:20.830Z,93.70
2023-02-05T22:09:11.057Z,93.70
2023-02-05T22:12:02.538Z,93.60
2023-02-05T22:14:48.579Z,93.60
2023-02-05T22:17:33.885Z,93.60
2023-02-05T22:20:22.570Z,93.70
2023-02-05T22:23:09.530Z,93.70
2023-02-05T22:25:55.089Z,93.70
2023-02-05T22:28:55.482Z,93.70
2023-02-05T22:31:41.658Z,93.70
2023-02-05T22:34:27.658Z,93.70
2023-02-05T22:37:13.011Z,93.60
2023-02-05T22:39:58.796Z,93.60
2023-02-05T22:42:44.281Z,93.60
2023-02-05T22:45:34.168Z,93.70
2023-02-05T22:48:19.909Z,93.70
2023-02-05T22:51:08.312Z,93.60
2023-02-05T22:53:56.343Z,93.60
2023-02-05T22:56:41.796Z,93.60
2023-02-05T22:59:27.406Z,93.60
2023-02-05T23:02:13.176Z,93.50
2023-02-05T23:04:58.778Z,93.50
2023-02-05T23:07:48.547Z,93.50
2023-02-05T23:10:34.104Z,93.60
2023-02-05T23:13:19.800Z,93.60
2023-02-05T23:16:18.243Z,93.60
2023-02-05T23:19:10.942Z,93.60
2023-02-05T23:21:56.505Z,93.50
2023-02-05T23:24:44.864Z,93.50
2023-02-05T23:27:32.473Z,93.60
2023-02-05T23:30:18.395Z,93.60
2023-02-05T23:33:04.098Z,93.60
2023-02-05T23:35:49.506Z,93.70
2023-02-05T23:38:35.016Z,93.70
2023-02-05T23:41:35.657Z,93.70
2023-02-05T23:44:22.131Z,93.60
2023-02-05T23:47:10.643Z,93.80
2023-02-05T23:49:56.116Z,93.60
2023-02-05T23:52:41.718Z,93.60
2023-02-05T23:55:27.175Z,93.70
2023-02-05T23:58:13.489Z,93.70
